createdAt,value
2022-12-11T00:01:32.495Z,16.60
2022-12-11T00:04:00.524Z,14.90
2022-12-11T00:06:28.610Z,17.03
2022-12-11T00:08:57.999Z,15.13
2022-12-11T00:11:26.083Z,16.53
2022-12-11T00:13:54.248Z,18.07
2022-12-11T00:16:26.741Z,17.70
2022-12-11T00:18:55.265Z,17.03
2022-12-11T00:21:23.272Z,17.77
2022-12-11T00:23:51.450Z,19.83
2022-12-11T00:26:20.902Z,16.13
2022-12-11T00:28:48.940Z,19.47
2022-12-11T00:31:18.778Z,16.13
2022-12-11T00:33:49.155Z,18.60
2022-12-11T00:36:18.588Z,17.80
2022-12-11T00:38:46.983Z,15.80
2022-12-11T00:41:15.063Z,16.03
2022-12-11T00:43:44.723Z,16.23
2022-12-11T00:46:13.543Z,16.67
2022-12-11T00:48:41.638Z,15.67
2022-12-11T00:51:09.872Z,14.63
2022-12-11T00:53:38.252Z,15.67
2022-12-11T00:56:11.675Z,15.47
2022-12-11T00:58:39.719Z,16.10
2022-12-11T01:01:11.196Z,15.20
2022-12-11T01:03:39.621Z,16.70
2022-12-11T01:06:08.896Z,15.53
2022-12-11T01:08:38.714Z,14.00
2022-12-11T01:11:08.524Z,14.57
2022-12-11T01:13:36.943Z,15.57
2022-12-11T01:16:10.250Z,15.30
2022-12-11T01:18:38.919Z,15.23
2022-12-11T01:21:08.313Z,15.70
2022-12-11T01:23:37.032Z,14.60
2022-12-11T01:26:10.414Z,14.80
2022-12-11T01:28:38.665Z,14.23
2022-12-11T01:31:11.459Z,14.43
2022-12-11T01:33:39.973Z,14.50
2022-12-11T01:36:10.001Z,14.10
2022-12-11T01:38:38.246Z,14.47
2022-12-11T01:41:06.579Z,14.17
2022-12-11T01:43:34.719Z,14.50
2022-12-11T01:46:02.955Z,14.20
2022-12-11T01:48:36.792Z,15.43
2022-12-11T01:51:08.864Z,14.40
2022-12-11T01:53:41.674Z,15.17
2022-12-11T01:56:11.174Z,13.90
2022-12-11T01:58:43.782Z,14.13
2022-12-11T02:01:15.772Z,14.57
2022-12-11T02:03:45.255Z,13.20
2022-12-11T02:06:31.869Z,12.60
2022-12-11T02:09:00.255Z,12.70
2022-12-11T02:11:36.948Z,12.07
2022-12-11T02:14:11.845Z,13.10
2022-12-11T02:16:46.744Z,13.33
2022-12-11T02:19:32.081Z,12.53
2022-12-11T02:22:04.415Z,11.53
2022-12-11T02:24:49.525Z,13.83
2022-12-11T02:27:28.129Z,10.90
2022-12-11T02:30:02.412Z,10.53
2022-12-11T02:32:36.997Z,12.00
2022-12-11T02:35:12.965Z,11.30
2022-12-11T02:37:44.696Z,13.10
2022-12-11T02:40:16.108Z,13.17
2022-12-11T02:42:46.313Z,13.60
2022-12-11T02:45:17.433Z,10.63
2022-12-11T02:47:48.508Z,10.63
2022-12-11T02:50:19.579Z,9.10
2022-12-11T02:52:51.599Z,10.37
2022-12-11T02:55:20.882Z,10.10
2022-12-11T02:57:52.575Z,9.87
2022-12-11T03:00:22.641Z,10.63
2022-12-11T03:02:50.801Z,11.07
2022-12-11T03:05:18.866Z,12.27
2022-12-11T03:07:47.073Z,11.47
2022-12-11T03:10:18.893Z,11.70
2022-12-11T03:12:53.408Z,11.33
2022-12-11T03:15:30.266Z,11.90
2022-12-11T03:18:04.993Z,11.07
2022-12-11T03:20:39.153Z,11.87
2022-12-11T03:23:16.468Z,13.10
2022-12-11T03:25:53.551Z,13.40
2022-12-11T03:28:29.008Z,12.67
2022-12-11T03:30:59.610Z,13.03
2022-12-11T03:33:32.134Z,11.90
2022-12-11T03:36:04.492Z,13.57
2022-12-11T03:38:37.423Z,13.83
2022-12-11T03:41:08.060Z,12.60
2022-12-11T03:43:37.484Z,11.73
2022-12-11T03:46:09.149Z,13.33
2022-12-11T03:48:41.783Z,13.03
2022-12-11T03:51:10.355Z,12.87
2022-12-11T03:53:39.317Z,13.37
2022-12-11T03:56:10.047Z,13.60
2022-12-11T03:58:38.505Z,12.80
2022-12-11T04:01:12.348Z,13.40
2022-12-11T04:03:40.612Z,12.40
2022-12-11T04:06:09.068Z,12.50
2022-12-11T04:08:37.113Z,12.70
2022-12-11T04:11:23.599Z,11.63
2022-12-11T04:14:12.294Z,12.23
2022-12-11T04:16:40.885Z,12.47
2022-12-11T04:19:28.033Z,11.93
2022-12-11T04:22:18.752Z,11.17
2022-12-11T04:24:49.015Z,10.40
2022-12-11T04:27:38.203Z,11.77
2022-12-11T04:30:08.914Z,11.57
2022-12-11T04:32:38.458Z,11.60
2022-12-11T04:35:09.135Z,13.23
2022-12-11T04:37:37.994Z,11.57
2022-12-11T04:40:07.655Z,12.23
2022-12-11T04:42:35.715Z,12.10
2022-12-11T04:45:04.141Z,11.40
2022-12-11T04:47:32.218Z,11.87
2022-12-11T04:50:01.547Z,11.00
2022-12-11T04:52:29.559Z,11.33
2022-12-11T04:54:57.624Z,11.33
2022-12-11T04:57:25.675Z,12.00
2022-12-11T04:59:53.736Z,11.77
2022-12-11T05:02:21.780Z,12.83
2022-12-11T05:04:50.025Z,11.90
2022-12-11T05:07:19.655Z,12.13
2022-12-11T05:09:47.861Z,12.23
2022-12-11T05:12:15.913Z,11.17
2022-12-11T05:14:44.635Z,11.47
2022-12-11T05:17:12.904Z,11.83
2022-12-11T05:19:40.967Z,12.27
2022-12-11T05:22:08.990Z,10.93
2022-12-11T05:24:38.396Z,11.17
2022-12-11T05:27:06.422Z,10.83
2022-12-11T05:29:35.503Z,10.87
2022-12-11T05:32:03.944Z,11.80
2022-12-11T05:34:32.928Z,12.80
2022-12-11T05:37:01.462Z,11.57
2022-12-11T05:39:29.531Z,11.50
2022-12-11T05:41:58.961Z,12.80
2022-12-11T05:44:27.074Z,11.10
2022-12-11T05:46:55.255Z,12.60
2022-12-11T05:49:29.141Z,10.70
2022-12-11T05:51:58.956Z,11.70
2022-12-11T05:54:27.008Z,10.50
2022-12-11T05:56:55.082Z,11.00
2022-12-11T05:59:24.484Z,12.07
2022-12-11T06:01:52.717Z,13.27
2022-12-11T06:04:21.884Z,14.70
2022-12-11T06:06:49.887Z,13.20
2022-12-11T06:09:18.568Z,15.00
2022-12-11T06:11:46.778Z,16.37
2022-12-11T06:14:14.934Z,16.80
2022-12-11T06:16:44.383Z,15.23
2022-12-11T06:19:15.611Z,15.80
2022-12-11T06:21:43.991Z,15.33
2022-12-11T06:24:14.122Z,16.00
2022-12-11T06:26:42.162Z,17.83
2022-12-11T06:29:13.012Z,18.00
2022-12-11T06:31:41.460Z,19.63
2022-12-11T06:34:13.429Z,17.17
2022-12-11T06:36:41.553Z,17.30
2022-12-11T06:39:09.656Z,19.53
2022-12-11T06:41:37.760Z,18.70
2022-12-11T06:44:05.918Z,17.70
2022-12-11T06:46:33.950Z,17.43
2022-12-11T06:49:02.030Z,17.20
2022-12-11T06:51:32.817Z,16.87
2022-12-11T06:54:00.945Z,18.53
2022-12-11T06:56:28.995Z,15.27
2022-12-11T06:58:57.182Z,17.10
2022-12-11T07:01:26.679Z,17.90
2022-12-11T07:03:55.461Z,17.73
2022-12-11T07:06:23.972Z,18.50
2022-12-11T07:08:53.614Z,15.80
2022-12-11T07:11:22.640Z,17.10
2022-12-11T07:13:51.132Z,15.60
2022-12-11T07:16:19.680Z,16.27
2022-12-11T07:18:55.071Z,17.80
2022-12-11T07:21:23.219Z,16.40
2022-12-11T07:23:53.304Z,16.80
2022-12-11T07:26:22.959Z,17.37
2022-12-11T07:28:51.197Z,15.60
2022-12-11T07:31:22.090Z,15.43
2022-12-11T07:33:54.441Z,15.00
2022-12-11T07:36:22.552Z,15.90
2022-12-11T07:38:50.623Z,14.50
2022-12-11T07:41:21.015Z,15.90
2022-12-11T07:43:49.199Z,14.40
2022-12-11T07:46:19.373Z,15.00
2022-12-11T07:48:48.947Z,14.43
2022-12-11T07:51:19.124Z,13.40
2022-12-11T07:53:50.238Z,13.50
2022-12-11T07:56:20.492Z,13.10
2022-12-11T07:58:49.177Z,12.77
2022-12-11T08:01:20.144Z,11.90
2022-12-11T08:03:48.458Z,12.80
2022-12-11T08:06:16.701Z,12.50
2022-12-11T08:08:45.063Z,11.67
2022-12-11T08:11:14.742Z,12.23
2022-12-11T08:13:44.794Z,11.37
2022-12-11T08:16:14.942Z,10.77
2022-12-11T08:18:44.138Z,11.03
2022-12-11T08:21:14.100Z,11.70
2022-12-11T08:23:42.511Z,11.93
2022-12-11T08:26:12.577Z,11.90
2022-12-11T08:28:40.761Z,11.10
2022-12-11T08:31:12.219Z,11.20
2022-12-11T08:33:41.775Z,12.30
2022-12-11T08:36:11.949Z,13.57
2022-12-11T08:38:40.280Z,11.40
2022-12-11T08:41:12.025Z,12.73
2022-12-11T08:43:40.866Z,13.57
2022-12-11T08:46:11.133Z,12.83
2022-12-11T08:48:41.404Z,12.23
2022-12-11T08:51:13.247Z,12.20
2022-12-11T08:53:41.481Z,11.90
2022-12-11T08:56:11.820Z,11.80
2022-12-11T08:58:40.223Z,12.40
2022-12-11T09:01:11.128Z,12.93
2022-12-11T09:03:40.448Z,13.93
2022-12-11T09:06:13.855Z,12.00
2022-12-11T09:08:46.027Z,14.30
2022-12-11T09:11:21.326Z,12.40
2022-12-11T09:13:49.871Z,13.73
2022-12-11T09:16:22.199Z,12.90
2022-12-11T09:18:52.220Z,13.23
2022-12-11T09:21:22.036Z,12.97
2022-12-11T09:23:50.466Z,12.90
2022-12-11T09:26:21.309Z,13.93
2022-12-11T09:28:51.321Z,12.20
2022-12-11T09:31:24.523Z,11.80
2022-12-11T09:33:55.393Z,12.10
2022-12-11T09:36:23.530Z,11.40
2022-12-11T09:38:55.123Z,11.60
2022-12-11T09:41:41.491Z,12.13
2022-12-11T09:44:42.547Z,14.00
2022-12-11T09:47:21.612Z,11.47
2022-12-11T09:49:55.971Z,11.73
2022-12-11T09:52:36.193Z,10.63
2022-12-11T09:55:14.257Z,10.10
2022-12-11T09:57:52.716Z,9.67
2022-12-11T10:00:30.424Z,9.43
2022-12-11T10:03:24.890Z,9.80
2022-12-11T10:06:04.889Z,9.57
2022-12-11T10:08:40.184Z,10.40
2022-12-11T10:11:32.458Z,10.57
2022-12-11T10:14:07.724Z,9.53
2022-12-11T10:16:40.370Z,9.80
2022-12-11T10:19:17.984Z,10.57
2022-12-11T10:21:47.809Z,10.60
2022-12-11T10:24:50.139Z,10.40
2022-12-11T10:27:19.245Z,10.20
2022-12-11T10:29:48.183Z,10.00
2022-12-11T10:32:25.528Z,9.67
2022-12-11T10:35:00.816Z,10.43
2022-12-11T10:37:29.165Z,9.53
2022-12-11T10:39:57.238Z,11.00
2022-12-11T10:42:25.361Z,10.20
2022-12-11T10:44:58.462Z,10.30
2022-12-11T10:47:26.932Z,10.47
2022-12-11T10:50:00.465Z,11.03
2022-12-11T10:52:32.779Z,10.37
2022-12-11T10:55:05.228Z,9.90
2022-12-11T10:57:35.778Z,12.40
2022-12-11T11:00:06.340Z,12.20
2022-12-11T11:02:38.609Z,11.73
2022-12-11T11:05:16.821Z,14.13
2022-12-11T11:07:47.713Z,11.93
2022-12-11T11:10:18.537Z,14.37
2022-12-11T11:12:48.461Z,13.80
2022-12-11T11:15:19.430Z,14.77
2022-12-11T11:17:54.853Z,14.17
2022-12-11T11:20:27.560Z,15.30
2022-12-11T11:22:57.775Z,13.60
2022-12-11T11:25:33.647Z,13.90
2022-12-11T11:28:03.712Z,14.30
2022-12-11T11:30:36.170Z,18.20
2022-12-11T11:33:06.838Z,15.13
2022-12-11T11:35:39.028Z,12.67
2022-12-11T11:38:17.093Z,13.13
2022-12-11T11:40:52.242Z,12.53
2022-12-11T11:43:29.231Z,13.90
2022-12-11T11:46:07.159Z,14.90
2022-12-11T11:48:46.938Z,14.03
2022-12-11T11:51:24.255Z,14.97
2022-12-11T11:53:55.248Z,14.20
2022-12-11T11:56:26.819Z,14.40
2022-12-11T11:59:04.256Z,12.33
2022-12-11T12:01:32.561Z,13.60
2022-12-11T12:04:03.900Z,12.87
2022-12-11T12:06:50.501Z,14.60
2022-12-11T12:09:32.380Z,14.20
2022-12-11T12:12:09.764Z,14.60
2022-12-11T12:14:52.551Z,13.20
2022-12-11T12:17:31.475Z,13.70
2022-12-11T12:20:13.630Z,13.07
2022-12-11T12:22:59.234Z,15.50
2022-12-11T12:25:36.023Z,15.60
2022-12-11T12:28:18.745Z,15.87
2022-12-11T12:30:52.862Z,16.23
2022-12-11T12:33:32.346Z,15.10
2022-12-11T12:36:07.543Z,14.80
2022-12-11T12:38:48.671Z,14.73
2022-12-11T12:41:23.421Z,15.37
2022-12-11T12:44:02.207Z,12.80
2022-12-11T12:46:43.959Z,13.70
2022-12-11T12:49:16.661Z,14.33
2022-12-11T12:51:46.095Z,15.30
2022-12-11T12:54:29.884Z,13.67
2022-12-11T12:56:59.893Z,15.10
2022-12-11T12:59:30.015Z,16.50
2022-12-11T13:02:00.142Z,16.07
2022-12-11T13:04:58.165Z,16.13
2022-12-11T13:07:30.436Z,16.17
2022-12-11T13:10:06.682Z,17.00
2022-12-11T13:12:45.370Z,16.80
2022-12-11T13:15:44.409Z,15.40
2022-12-11T13:18:34.985Z,15.07
2022-12-11T13:21:04.357Z,16.17
2022-12-11T13:23:34.313Z,16.00
2022-12-11T13:26:05.501Z,15.43
2022-12-11T13:28:47.983Z,16.40
2022-12-11T13:31:45.171Z,18.13
2022-12-11T13:34:18.598Z,17.57
2022-12-11T13:36:50.278Z,16.70
2022-12-11T13:39:23.701Z,16.23
2022-12-11T13:41:58.510Z,16.63
2022-12-11T13:44:28.919Z,17.63
2022-12-11T13:47:00.310Z,17.70
2022-12-11T13:49:45.035Z,17.40
2022-12-11T13:52:30.164Z,17.10
2022-12-11T13:55:20.716Z,19.60
2022-12-11T13:58:35.027Z,19.37
2022-12-11T14:01:23.339Z,17.67
2022-12-11T14:04:07.704Z,19.10
2022-12-11T14:07:29.924Z,17.70
2022-12-11T14:10:16.058Z,17.03
2022-12-11T14:13:10.606Z,17.37
2022-12-11T14:16:17.181Z,17.63
2022-12-11T14:19:13.775Z,19.67
2022-12-11T14:21:53.647Z,18.13
2022-12-11T14:25:02.790Z,18.97
2022-12-11T14:27:51.799Z,18.97
2022-12-11T14:30:44.012Z,21.03
2022-12-11T14:34:00.812Z,20.00
2022-12-11T14:36:31.236Z,18.93
2022-12-11T14:39:04.875Z,18.87
2022-12-11T14:41:43.343Z,19.13
2022-12-11T14:44:16.749Z,19.37
2022-12-11T14:46:57.197Z,19.00
2022-12-11T14:49:38.012Z,20.70
2022-12-11T14:52:07.277Z,18.43
2022-12-11T14:54:39.880Z,18.23
2022-12-11T14:57:09.671Z,20.83
2022-12-11T14:59:45.564Z,18.93
2022-12-11T15:02:28.694Z,19.17
2022-12-11T15:05:13.343Z,20.63
2022-12-11T15:07:54.073Z,17.60
2022-12-11T15:10:38.722Z,19.73
2022-12-11T15:13:08.583Z,17.03
2022-12-11T15:15:48.413Z,18.30
2022-12-11T15:18:22.686Z,17.73
2022-12-11T15:20:55.146Z,17.47
2022-12-11T15:23:23.552Z,18.53
2022-12-11T15:25:53.701Z,18.00
2022-12-11T15:28:29.233Z,17.63
2022-12-11T15:30:59.937Z,17.60
2022-12-11T15:33:34.143Z,21.07
2022-12-11T15:36:06.896Z,18.83
2022-12-11T15:38:37.732Z,19.40
2022-12-11T15:41:07.224Z,19.03
2022-12-11T15:43:37.829Z,19.63
2022-12-11T15:46:07.209Z,20.00
2022-12-11T15:48:35.551Z,22.00
2022-12-11T15:51:05.318Z,20.47
2022-12-11T15:53:33.560Z,20.90
2022-12-11T15:56:02.020Z,19.83
2022-12-11T15:58:30.936Z,19.10
2022-12-11T16:01:00.029Z,17.50
2022-12-11T16:03:28.154Z,17.60
2022-12-11T16:05:56.386Z,17.73
2022-12-11T16:08:26.081Z,19.50
2022-12-11T16:10:55.545Z,18.60
2022-12-11T16:13:23.715Z,18.73
2022-12-11T16:15:53.787Z,18.13
2022-12-11T16:18:26.479Z,19.40
2022-12-11T16:20:54.626Z,20.40
2022-12-11T16:23:24.118Z,19.80
2022-12-11T16:25:57.658Z,17.97
2022-12-11T16:28:30.660Z,19.17
2022-12-11T16:30:59.269Z,19.40
2022-12-11T16:33:30.259Z,21.30
2022-12-11T16:35:59.221Z,20.40
2022-12-11T16:38:27.557Z,21.23
2022-12-11T16:41:16.820Z,22.40
2022-12-11T16:43:48.228Z,23.93
2022-12-11T16:46:19.014Z,23.07
2022-12-11T16:48:47.230Z,24.00
2022-12-11T16:51:15.317Z,23.90
2022-12-11T16:53:43.379Z,23.20
2022-12-11T16:56:21.262Z,24.97
2022-12-11T16:58:50.896Z,23.47
2022-12-11T17:01:26.654Z,24.67
2022-12-11T17:03:55.066Z,23.87
2022-12-11T17:06:23.438Z,23.83
2022-12-11T17:08:51.664Z,24.50
2022-12-11T17:11:24.919Z,25.20
2022-12-11T17:13:54.573Z,23.93
2022-12-11T17:16:24.948Z,23.80
2022-12-11T17:18:53.300Z,23.50
2022-12-11T17:21:22.846Z,23.87
2022-12-11T17:23:51.699Z,23.50
2022-12-11T17:26:21.344Z,23.00
2022-12-11T17:28:49.470Z,25.80
2022-12-11T17:31:19.992Z,24.40
2022-12-11T17:33:49.649Z,25.27
2022-12-11T17:36:20.679Z,26.17
2022-12-11T17:38:49.483Z,26.50
2022-12-11T17:41:20.700Z,25.20
2022-12-11T17:43:51.734Z,26.07
2022-12-11T17:46:21.134Z,25.23
2022-12-11T17:48:54.798Z,24.43
2022-12-11T17:51:24.490Z,23.50
2022-12-11T17:53:53.259Z,25.20
2022-12-11T17:56:21.399Z,22.80
2022-12-11T17:58:51.005Z,23.63
2022-12-11T18:01:19.524Z,24.00
2022-12-11T18:03:48.204Z,22.90
2022-12-11T18:06:17.615Z,27.13
2022-12-11T18:08:49.179Z,23.50
2022-12-11T18:11:19.591Z,24.40
2022-12-11T18:13:47.663Z,24.40
2022-12-11T18:16:19.558Z,25.00
2022-12-11T18:18:50.358Z,25.23
2022-12-11T18:21:21.500Z,26.30
2022-12-11T18:23:51.065Z,27.10
2022-12-11T18:26:21.790Z,23.80
2022-12-11T18:28:53.995Z,23.90
2022-12-11T18:31:26.105Z,25.40
2022-12-11T18:33:54.249Z,25.30
2022-12-11T18:36:23.155Z,24.73
2022-12-11T18:38:51.320Z,25.50
2022-12-11T18:41:20.376Z,26.00
2022-12-11T18:43:49.107Z,24.53
2022-12-11T18:46:19.780Z,23.93
2022-12-11T18:48:51.153Z,24.57
2022-12-11T18:51:22.639Z,22.20
2022-12-11T18:53:51.104Z,23.00
2022-12-11T18:56:21.020Z,25.50
2022-12-11T18:58:49.579Z,25.00
2022-12-11T19:01:20.578Z,23.07
2022-12-11T19:03:51.413Z,21.60
2022-12-11T19:06:21.628Z,24.57
2022-12-11T19:08:49.884Z,24.13
2022-12-11T19:11:20.294Z,23.67
2022-12-11T19:13:48.928Z,21.10
2022-12-11T19:16:18.291Z,23.60
2022-12-11T19:18:46.630Z,22.80
2022-12-11T19:21:17.529Z,26.70
2022-12-11T19:23:46.885Z,24.80
2022-12-11T19:26:23.412Z,25.00
2022-12-11T19:28:52.712Z,25.03
2022-12-11T19:31:23.329Z,24.40
2022-12-11T19:33:51.840Z,23.87
2022-12-11T19:36:24.030Z,24.87
2022-12-11T19:38:56.509Z,26.20
2022-12-11T19:41:29.625Z,25.33
2022-12-11T19:43:59.514Z,28.03
2022-12-11T19:46:28.657Z,28.80
2022-12-11T19:48:58.263Z,27.90
2022-12-11T19:51:30.308Z,29.10
2022-12-11T19:53:59.748Z,29.60
2022-12-11T19:56:28.010Z,29.33
2022-12-11T19:58:56.218Z,30.33
2022-12-11T20:01:28.525Z,30.20
2022-12-11T20:03:59.542Z,28.63
2022-12-11T20:06:30.117Z,26.77
2022-12-11T20:08:58.289Z,27.80
2022-12-11T20:11:26.726Z,29.53
2022-12-11T20:13:55.593Z,27.33
2022-12-11T20:16:39.681Z,29.77
2022-12-11T20:19:12.485Z,27.70
2022-12-11T20:21:42.167Z,25.90
2022-12-11T20:24:11.031Z,26.23
2022-12-11T20:26:39.510Z,26.10
2022-12-11T20:29:08.479Z,25.77
2022-12-11T20:31:37.551Z,25.03
2022-12-11T20:34:06.614Z,26.10
2022-12-11T20:36:35.290Z,26.70
2022-12-11T20:39:05.054Z,25.77
2022-12-11T20:41:33.136Z,23.77
2022-12-11T20:44:01.301Z,24.70
2022-12-11T20:46:29.424Z,25.10
2022-12-11T20:48:59.576Z,25.97
2022-12-11T20:51:29.145Z,27.13
2022-12-11T20:53:59.323Z,25.47
2022-12-11T20:56:30.826Z,28.10
2022-12-11T20:59:00.669Z,23.87
2022-12-11T21:01:31.086Z,25.07
2022-12-11T21:04:00.245Z,25.37
2022-12-11T21:06:31.667Z,26.10
2022-12-11T21:09:00.752Z,27.33
2022-12-11T21:11:30.225Z,25.33
2022-12-11T21:13:58.284Z,26.37
2022-12-11T21:16:26.516Z,25.63
2022-12-11T21:18:56.057Z,25.83
2022-12-11T21:21:24.357Z,24.47
2022-12-11T21:23:52.424Z,24.97
2022-12-11T21:26:20.598Z,25.10
2022-12-11T21:28:50.092Z,23.90
2022-12-11T21:31:20.610Z,23.10
2022-12-11T21:33:49.340Z,23.90
2022-12-11T21:36:18.242Z,23.73
2022-12-11T21:38:47.620Z,24.67
2022-12-11T21:41:17.935Z,25.13
2022-12-11T21:44:49.812Z,24.13
2022-12-11T21:46:37.743Z,24.63
2022-12-11T21:49:05.938Z,22.00
2022-12-11T21:51:39.461Z,25.60
2022-12-11T21:54:14.411Z,23.23
2022-12-11T21:56:42.731Z,25.23
2022-12-11T21:59:10.802Z,22.83
2022-12-11T22:01:42.220Z,25.63
2022-12-11T22:04:11.882Z,24.77
2022-12-11T22:06:42.086Z,26.97
2022-12-11T22:09:10.297Z,24.60
2022-12-11T22:11:38.409Z,24.37
2022-12-11T22:14:07.231Z,25.70
2022-12-11T22:16:36.051Z,23.87
2022-12-11T22:19:05.627Z,26.87
2022-12-11T22:21:33.695Z,24.40
2022-12-11T22:24:02.049Z,26.03
2022-12-11T22:26:30.269Z,25.53
2022-12-11T22:28:59.380Z,24.43
2022-12-11T22:31:28.382Z,23.40
2022-12-11T22:33:56.850Z,23.70
2022-12-11T22:36:28.202Z,22.70
2022-12-11T22:38:56.464Z,21.77
2022-12-11T22:41:27.690Z,23.57
2022-12-11T22:43:55.980Z,21.17
2022-12-11T22:46:26.613Z,20.17
2022-12-11T22:48:55.225Z,20.60
2022-12-11T22:51:23.867Z,21.80
2022-12-11T22:53:53.354Z,19.80
2022-12-11T22:56:21.583Z,22.80
2022-12-11T22:58:49.607Z,20.57
2022-12-11T23:01:20.477Z,20.73
2022-12-11T23:03:49.461Z,20.13
2022-12-11T23:06:22.824Z,22.90
2022-12-11T23:08:51.042Z,20.20
2022-12-11T23:11:25.860Z,20.90
2022-12-11T23:13:54.696Z,20.80
2022-12-11T23:16:23.796Z,19.97
2022-12-11T23:18:51.978Z,21.23
2022-12-11T23:21:20.148Z,19.97
2022-12-11T23:23:48.458Z,20.37
2022-12-11T23:26:18.748Z,21.30
2022-12-11T23:28:49.219Z,20.70
2022-12-11T23:31:18.449Z,21.17
2022-12-11T23:33:46.630Z,19.60
2022-12-11T23:36:15.008Z,19.57
2022-12-11T23:38:43.079Z,17.90
2022-12-11T23:41:14.423Z,19.63
2022-12-11T23:43:43.629Z,18.30
2022-12-11T23:47:20.283Z,18.77
2022-12-11T23:49:49.571Z,17.30
2022-12-11T23:52:17.593Z,16.03
2022-12-11T23:54:45.595Z,16.57
2022-12-11T23:57:13.537Z,17.93
2022-12-11T23:59:41.530Z,16.60
